Pagrindinis puslapis
METAR-TAF:

METAR-TAF

Oro uostai :

Sharurah, Saudo Arabija

platuma: 17-28N, ilguma: 047-07E, Aukštis: 720 m

Dabartinis oras

Ataskaita buvo paskelbta 1 valandą ir 11 minutes, ne 20:00 UTC
Vėjas 4 kt iš Rytų
Temperatūra 34°C
Drėgmė 20%
Slėgis 1003 hPa
Matomumas 10 km arba daugiau
nėra debesų žemiau 1500 m ir nėra kamuolinių lietaus debesų

METAR: OESH 062000Z 10004KT CAVOK 34/08 Q1003 NOSIG

Laikas: 00:11 (21:11 UTC)

Prognozė

Ataskaita buvo paskelbta 10 valandos ir 11 minutes, ne 11:00 UTC
Prognozė galioja nuo 06 metu 12 UTC su 07 metu 18 UTC
Vėjas 14 kt iš Rytų
Matomumas: 7000 m
Mažai debesys ne aukštis 4000 ft
Išsisklaidę debesys ne aukštis 10000 ft
Tapsmas
nuo 06 metu 18 UTC su 06 metu 20 UTC
Vėjas 10 kt iš Pietų/Pietvakarių

TAF: OESH 061100Z 0612/0718 10014KT 7000 FEW040 SCT100 BECMG 0618/0620 20010KT

Orai ataskaitas ir orų prognozės (METAR, TAF).

turimą stotys yra geltonos ir raudonos taškus žemėlapyje.

Perkelti pele per norėdami pamatyti stoties vardą.

Tada spustelėkite, norėdami matyti oro stebėjimo ir prognozės.

Norėdami pakeisti žemėlapį: spustelėkite ant žalios mygtukų su juodo kryžiaus žemyn,; žalią mygtuką su brūkšneliu, jei norite nutolinti; arba žalių rodyklių gretimoms žemėlapius.


METAR-TAF: